Hlavní strana
METAR-TAF:

METAR-TAF

Letiště :

Letiště Hévíz

Hévíz, Maďarsko

zeměpisná šířka: 46-41-11N, zeměpisná délka: 017-09-33E, výška: 124 m

Aktuální stav počasí

Zpráva byla vytvořena před 33 minutami, v 01:15 UTC
Severozápadní vítr 4 kt
Teplota 17°C
Vlhkost vzduchu 100%
Tlak 1019 hPa
Viditelnost 10 km a více
Žádná oblačnost pod 1500 m, nevyskytují se cumulonimby.

METAR: LHSM 190115Z 32004KT CAVOK 17/17 Q1019 NOSIG

Čas: 03:48 (01:48 UTC)

Předpověď počasí

Zpráva byla vytvořena před 2 hodinami a 33 minutami, v 23:15 UTC
Předpověď platná od 19 v 00 UTC do 19 v 09 UTC
vítr z různých směrů 3 kt
Viditelnost 10 km a více
Žádná oblačnost pod 1500 m, nevyskytují se cumulonimby.

TAF: LHSM 182315Z 1900/1909 VRB03KT CAVOK

Stav a předpovědi počasí z více než 4 000 letišť (zprávy METAR a TAF).

Červené a žluté tečky na mapě představují dostupné meteorologické stanice.

Když kurzor umístíte na tečku, zobrazí se název stanice.

Pak kliknutím zobrazíte stav a předpověď počasí.

Chcete-li změnit mapu, kliknutím na zelené tlačítko se znaménkem +mapu přiblížíte, kliknutím na zelené tlačítko se znaménkem – mapu oddálíte a kliknutím na zelené šipky přejdete na sousední mapy.


METAR-TAF: